createdAt,value
2022-09-22T00:01:39.629Z,18.33
2022-09-22T00:04:05.915Z,18.33
2022-09-22T00:06:32.244Z,18.32
2022-09-22T00:08:58.934Z,18.32
2022-09-22T00:11:25.167Z,18.33
2022-09-22T00:13:51.789Z,18.35
2022-09-22T00:16:18.119Z,18.34
2022-09-22T00:18:44.740Z,18.33
2022-09-22T00:21:11.290Z,18.34
2022-09-22T00:23:37.762Z,18.32
2022-09-22T00:26:04.267Z,18.31
2022-09-22T00:28:30.581Z,18.32
2022-09-22T00:30:57.026Z,18.31
2022-09-22T00:33:23.307Z,18.29
2022-09-22T00:35:49.861Z,18.31
2022-09-22T00:38:16.180Z,18.32
2022-09-22T00:40:42.534Z,18.31
2022-09-22T00:43:09.101Z,18.33
2022-09-22T00:45:35.584Z,18.32
2022-09-22T00:48:01.827Z,18.31
2022-09-22T00:50:28.089Z,18.30
2022-09-22T00:52:54.561Z,18.31
2022-09-22T00:55:21.036Z,18.32
2022-09-22T00:57:47.472Z,18.31
2022-09-22T01:00:13.718Z,18.32
2022-09-22T01:02:40.150Z,18.32
2022-09-22T01:05:06.589Z,18.29
2022-09-22T01:07:34.476Z,18.29
2022-09-22T01:10:00.997Z,18.30
2022-09-22T01:12:27.491Z,18.30
2022-09-22T01:14:53.753Z,18.29
2022-09-22T01:17:21.717Z,18.29
2022-09-22T01:19:48.129Z,18.29
2022-09-22T01:22:14.712Z,18.28
2022-09-22T01:24:41.023Z,18.27
2022-09-22T01:27:07.236Z,18.27
2022-09-22T01:29:33.758Z,18.30
2022-09-22T01:32:00.013Z,18.28
2022-09-22T01:34:26.348Z,18.27
2022-09-22T01:36:52.698Z,18.28
2022-09-22T01:39:18.946Z,18.28
2022-09-22T01:41:45.237Z,18.28
2022-09-22T01:44:11.557Z,18.27
2022-09-22T01:46:37.901Z,18.31
2022-09-22T01:49:04.402Z,18.28
2022-09-22T01:51:30.705Z,18.27
2022-09-22T01:53:57.266Z,18.26
2022-09-22T01:56:23.580Z,18.27
2022-09-22T01:58:49.891Z,18.27
2022-09-22T02:01:16.588Z,18.26
2022-09-22T02:03:42.869Z,18.25
2022-09-22T02:06:09.196Z,18.25
2022-09-22T02:08:35.474Z,18.25
2022-09-22T02:11:01.751Z,18.26
2022-09-22T02:13:27.987Z,18.26
2022-09-22T02:15:54.610Z,18.26
2022-09-22T02:18:21.149Z,18.25
2022-09-22T02:20:47.593Z,18.26
2022-09-22T02:23:14.064Z,18.25
2022-09-22T02:25:40.519Z,18.24
2022-09-22T02:28:06.821Z,18.26
2022-09-22T02:30:33.156Z,18.24
2022-09-22T02:32:59.542Z,18.24
2022-09-22T02:35:25.925Z,18.24
2022-09-22T02:37:52.244Z,18.24
2022-09-22T02:40:18.855Z,18.26
2022-09-22T02:42:45.147Z,18.24
2022-09-22T02:45:11.431Z,18.24
2022-09-22T02:47:38.688Z,18.25
2022-09-22T02:50:05.478Z,18.24
2022-09-22T02:52:31.748Z,18.23
2022-09-22T02:54:58.179Z,18.23
2022-09-22T02:57:24.480Z,18.25
2022-09-22T02:59:50.829Z,18.24
2022-09-22T03:02:17.299Z,18.22
2022-09-22T03:04:43.648Z,18.22
2022-09-22T03:07:10.208Z,18.22
2022-09-22T03:09:36.457Z,18.24
2022-09-22T03:12:02.855Z,18.22
2022-09-22T03:14:29.353Z,18.23
2022-09-22T03:16:55.793Z,18.23
2022-09-22T03:19:22.131Z,18.23
2022-09-22T03:21:48.471Z,18.22
2022-09-22T03:24:14.775Z,18.22
2022-09-22T03:26:41.303Z,18.20
2022-09-22T03:29:07.571Z,18.21
2022-09-22T03:31:34.114Z,18.21
2022-09-22T03:34:00.527Z,18.23
2022-09-22T03:36:27.237Z,18.22
2022-09-22T03:38:53.663Z,18.22
2022-09-22T03:41:19.939Z,18.19
2022-09-22T03:43:46.480Z,18.20
2022-09-22T03:46:12.844Z,18.20
2022-09-22T03:48:42.925Z,18.20
2022-09-22T03:51:11.372Z,18.20
2022-09-22T03:53:37.685Z,18.20
2022-09-22T03:56:05.138Z,18.20
2022-09-22T03:58:31.448Z,18.20
2022-09-22T04:00:57.782Z,18.20
2022-09-22T04:03:24.218Z,18.20
2022-09-22T04:05:50.878Z,18.19
2022-09-22T04:08:17.406Z,18.18
2022-09-22T04:10:44.195Z,18.20
2022-09-22T04:13:10.684Z,18.18
2022-09-22T04:15:37.256Z,18.19
2022-09-22T04:18:03.533Z,18.20
2022-09-22T04:20:29.836Z,18.20
2022-09-22T04:22:56.212Z,18.19
2022-09-22T04:25:22.609Z,18.19
2022-09-22T04:27:48.885Z,18.20
2022-09-22T04:30:15.220Z,18.19
2022-09-22T04:32:41.548Z,18.19
2022-09-22T04:35:09.029Z,18.17
2022-09-22T04:37:36.087Z,18.19
2022-09-22T04:40:02.362Z,18.17
2022-09-22T04:42:28.706Z,18.17
2022-09-22T04:44:54.957Z,18.17
2022-09-22T04:47:21.255Z,18.17
2022-09-22T04:49:48.697Z,18.17
2022-09-22T04:52:15.741Z,18.18
2022-09-22T04:54:42.000Z,18.18
2022-09-22T04:57:08.261Z,18.17
2022-09-22T04:59:34.531Z,18.17
2022-09-22T05:02:00.912Z,18.17
2022-09-22T05:04:27.295Z,18.16
2022-09-22T05:06:53.542Z,18.16
2022-09-22T05:09:20.110Z,18.15
2022-09-22T05:11:46.561Z,18.15
2022-09-22T05:14:12.847Z,18.14
2022-09-22T05:16:39.531Z,18.15
2022-09-22T05:19:05.873Z,18.14
2022-09-22T05:21:32.200Z,18.13
2022-09-22T05:23:58.530Z,18.14
2022-09-22T05:26:25.103Z,18.14
2022-09-22T05:28:51.411Z,18.13
2022-09-22T05:31:17.859Z,18.12
2022-09-22T05:33:44.193Z,18.09
2022-09-22T05:36:10.447Z,18.09
2022-09-22T05:38:36.709Z,18.08
2022-09-22T05:41:03.137Z,18.10
2022-09-22T05:43:29.441Z,18.11
2022-09-22T05:45:55.967Z,18.11
2022-09-22T05:48:22.332Z,18.11
2022-09-22T05:50:48.642Z,18.10
2022-09-22T05:53:15.117Z,18.12
2022-09-22T05:55:41.585Z,18.10
2022-09-22T05:58:07.820Z,18.11
2022-09-22T06:00:34.204Z,18.13
2022-09-22T06:03:00.624Z,18.12
2022-09-22T06:05:26.864Z,18.10
2022-09-22T06:07:53.313Z,18.11
2022-09-22T06:10:19.585Z,18.10
2022-09-22T06:12:46.310Z,18.09
2022-09-22T06:15:12.614Z,18.08
2022-09-22T06:17:38.988Z,18.09
2022-09-22T06:20:05.353Z,18.08
2022-09-22T06:22:32.573Z,18.08
2022-09-22T06:24:58.876Z,18.09
2022-09-22T06:27:25.137Z,18.09
2022-09-22T06:29:51.853Z,18.09
2022-09-22T06:32:18.306Z,18.08
2022-09-22T06:34:44.582Z,18.07
2022-09-22T06:37:10.964Z,18.09
2022-09-22T06:39:37.336Z,18.09
2022-09-22T06:42:03.608Z,18.07
2022-09-22T06:44:29.997Z,18.10
2022-09-22T06:46:56.297Z,18.10
2022-09-22T06:49:22.612Z,18.09
2022-09-22T06:51:48.846Z,18.09
2022-09-22T06:54:15.159Z,18.10
2022-09-22T06:56:41.444Z,18.11
2022-09-22T06:59:10.629Z,18.10
2022-09-22T07:01:37.734Z,18.11
2022-09-22T07:04:04.445Z,18.10
2022-09-22T07:06:30.884Z,18.10
2022-09-22T07:08:57.258Z,18.09
2022-09-22T07:11:23.881Z,18.12
2022-09-22T07:13:50.200Z,18.10
2022-09-22T07:16:16.589Z,18.10
2022-09-22T07:18:42.909Z,18.10
2022-09-22T07:21:09.232Z,18.09
2022-09-22T07:23:35.702Z,18.10
2022-09-22T07:26:01.946Z,18.10
2022-09-22T07:28:28.272Z,18.11
2022-09-22T07:30:54.529Z,18.09
2022-09-22T07:33:20.928Z,18.06
2022-09-22T07:35:47.220Z,18.09
2022-09-22T07:38:13.505Z,18.08
2022-09-22T07:40:39.815Z,18.07
2022-09-22T07:43:06.142Z,18.08
2022-09-22T07:45:32.606Z,18.08
2022-09-22T07:47:58.952Z,18.08
2022-09-22T07:50:25.597Z,18.07
2022-09-22T07:52:51.965Z,18.09
2022-09-22T07:55:18.310Z,18.09
2022-09-22T07:57:44.624Z,18.03
2022-09-22T08:00:10.921Z,18.07
2022-09-22T08:02:37.266Z,18.09
2022-09-22T08:05:03.737Z,18.10
2022-09-22T08:07:29.997Z,18.11
2022-09-22T08:09:56.300Z,18.10
2022-09-22T08:12:22.596Z,18.11
2022-09-22T08:14:48.901Z,18.12
2022-09-22T08:17:15.517Z,18.13
2022-09-22T08:19:42.013Z,18.11
2022-09-22T08:22:08.332Z,18.11
2022-09-22T08:24:35.030Z,18.12
2022-09-22T08:27:01.388Z,18.14
2022-09-22T08:29:27.824Z,18.13
2022-09-22T08:31:54.363Z,18.12
2022-09-22T08:34:20.830Z,18.13
2022-09-22T08:36:47.330Z,18.11
2022-09-22T08:39:14.032Z,18.13
2022-09-22T08:41:40.560Z,18.13
2022-09-22T08:44:06.980Z,18.13
2022-09-22T08:46:33.315Z,18.13
2022-09-22T08:48:59.632Z,18.13
2022-09-22T08:51:26.068Z,18.12
2022-09-22T08:53:52.370Z,18.12
2022-09-22T08:56:18.656Z,18.13
2022-09-22T08:58:45.510Z,18.11
2022-09-22T09:01:11.831Z,18.13
2022-09-22T09:03:38.152Z,18.13
2022-09-22T09:06:04.578Z,18.12
2022-09-22T09:08:31.004Z,18.11
2022-09-22T09:10:57.305Z,18.11
2022-09-22T09:13:23.900Z,18.10
2022-09-22T09:15:50.373Z,18.11
2022-09-22T09:18:16.694Z,18.11
2022-09-22T09:20:43.090Z,18.11
2022-09-22T09:23:09.469Z,18.12
2022-09-22T09:25:35.914Z,18.12
2022-09-22T09:28:02.187Z,18.11
2022-09-22T09:30:28.532Z,18.11
2022-09-22T09:32:54.817Z,18.12
2022-09-22T09:35:21.154Z,18.12
2022-09-22T09:37:47.511Z,18.12
2022-09-22T09:40:13.951Z,18.13
2022-09-22T09:42:40.392Z,18.10
2022-09-22T09:45:06.665Z,18.11
2022-09-22T09:47:32.939Z,18.11
2022-09-22T09:49:59.383Z,18.10
2022-09-22T09:52:26.013Z,18.10
2022-09-22T09:54:52.276Z,18.10
2022-09-22T09:57:18.597Z,18.09
2022-09-22T09:59:45.309Z,18.09
2022-09-22T10:02:11.601Z,18.10
2022-09-22T10:04:38.088Z,18.09
2022-09-22T10:07:04.376Z,18.09
2022-09-22T10:09:30.683Z,18.10
2022-09-22T10:11:56.961Z,18.11
2022-09-22T10:14:23.490Z,18.10
2022-09-22T10:16:49.886Z,18.10
2022-09-22T10:19:16.613Z,18.11
2022-09-22T10:21:43.081Z,18.10
2022-09-22T10:24:09.430Z,18.09
2022-09-22T10:26:35.896Z,18.10
2022-09-22T10:29:02.280Z,18.09
2022-09-22T10:31:28.709Z,18.11
2022-09-22T10:33:55.167Z,18.11
2022-09-22T10:36:21.546Z,18.10
2022-09-22T10:38:47.830Z,18.10
2022-09-22T10:41:14.100Z,18.10
2022-09-22T10:43:40.378Z,18.09
2022-09-22T10:46:06.694Z,18.09
2022-09-22T10:48:33.053Z,18.09
2022-09-22T10:50:59.632Z,18.09
2022-09-22T10:53:26.053Z,18.08
2022-09-22T10:55:52.318Z,18.08
2022-09-22T10:58:18.645Z,18.08
2022-09-22T11:00:44.871Z,18.10
2022-09-22T11:03:11.126Z,18.08
2022-09-22T11:05:37.529Z,18.08
2022-09-22T11:08:03.812Z,18.08
2022-09-22T11:10:30.256Z,18.07
2022-09-22T11:12:56.920Z,18.09
2022-09-22T11:15:23.297Z,18.09
2022-09-22T11:17:50.000Z,18.06
2022-09-22T11:20:16.360Z,18.08
2022-09-22T11:22:42.718Z,18.09
2022-09-22T11:25:08.976Z,18.08
2022-09-22T11:27:35.240Z,18.08
2022-09-22T11:30:02.393Z,18.09
2022-09-22T11:32:31.796Z,18.10
2022-09-22T11:34:58.064Z,18.08
2022-09-22T11:37:24.359Z,18.09
2022-09-22T11:39:50.708Z,18.08
2022-09-22T11:42:17.070Z,18.08
2022-09-22T11:44:43.332Z,18.09
2022-09-22T11:47:09.664Z,18.10
2022-09-22T11:49:36.032Z,18.11
2022-09-22T11:52:02.432Z,18.12
2022-09-22T11:54:28.837Z,18.12
2022-09-22T11:56:55.421Z,18.11
2022-09-22T11:59:21.879Z,18.13
2022-09-22T12:01:48.186Z,18.13
2022-09-22T12:04:14.956Z,18.13
2022-09-22T12:06:41.324Z,18.13
2022-09-22T12:09:07.928Z,18.12
2022-09-22T12:11:34.247Z,18.11
2022-09-22T12:14:01.610Z,18.11
2022-09-22T12:16:28.109Z,18.10
2022-09-22T12:18:54.347Z,18.10
2022-09-22T12:21:20.865Z,18.11
2022-09-22T12:23:50.569Z,18.11
2022-09-22T12:26:17.676Z,18.11
2022-09-22T12:28:44.035Z,18.11
2022-09-22T12:31:10.861Z,18.11
2022-09-22T12:33:37.391Z,18.10
2022-09-22T12:36:03.854Z,18.12
2022-09-22T12:38:30.847Z,18.11
2022-09-22T12:40:57.414Z,18.11
2022-09-22T12:43:23.733Z,18.11
2022-09-22T12:45:50.078Z,18.11
2022-09-22T12:48:16.496Z,18.11
2022-09-22T12:50:42.773Z,18.11
2022-09-22T12:53:09.422Z,18.09
2022-09-22T12:55:35.896Z,18.10
2022-09-22T12:58:02.151Z,18.09
2022-09-22T13:00:30.643Z,18.10
2022-09-22T13:02:59.428Z,18.09
2022-09-22T13:05:25.698Z,18.08
2022-09-22T13:07:51.969Z,18.10
2022-09-22T13:10:18.280Z,18.08
2022-09-22T13:12:44.559Z,18.08
2022-09-22T13:15:10.953Z,18.09
2022-09-22T13:17:37.454Z,18.08
2022-09-22T13:20:03.735Z,18.07
2022-09-22T13:22:30.202Z,18.07
2022-09-22T13:24:56.476Z,18.07
2022-09-22T13:27:22.920Z,18.09
2022-09-22T13:29:49.237Z,18.08
2022-09-22T13:32:18.422Z,18.08
2022-09-22T13:34:45.259Z,18.10
2022-09-22T13:37:11.725Z,18.09
2022-09-22T13:39:38.247Z,18.10
2022-09-22T13:42:04.492Z,18.10
2022-09-22T13:44:30.736Z,18.10
2022-09-22T13:46:57.364Z,18.10
2022-09-22T13:49:23.869Z,18.10
2022-09-22T13:51:50.455Z,18.11
2022-09-22T13:54:16.762Z,18.10
2022-09-22T13:56:43.106Z,18.11
2022-09-22T13:59:09.412Z,18.10
2022-09-22T14:01:35.700Z,18.12
2022-09-22T14:04:02.185Z,18.13
2022-09-22T14:06:28.421Z,18.12
2022-09-22T14:08:54.712Z,18.13
2022-09-22T14:11:21.040Z,18.12
2022-09-22T14:13:47.405Z,18.14
2022-09-22T14:16:14.388Z,18.12
2022-09-22T14:18:40.643Z,18.13
2022-09-22T14:21:07.668Z,18.13
2022-09-22T14:23:34.103Z,18.14
2022-09-22T14:26:00.358Z,18.14
2022-09-22T14:28:26.856Z,18.15
2022-09-22T14:30:53.463Z,18.14
2022-09-22T14:33:19.777Z,18.16
2022-09-22T14:35:46.058Z,18.16
2022-09-22T14:38:19.025Z,18.17
2022-09-22T14:40:46.799Z,18.18
2022-09-22T14:43:13.133Z,18.18
2022-09-22T14:45:39.422Z,18.18
2022-09-22T14:48:05.934Z,18.18
2022-09-22T14:50:32.460Z,18.18
2022-09-22T14:52:58.813Z,18.19
2022-09-22T14:55:25.166Z,18.20
2022-09-22T14:57:51.671Z,18.20
2022-09-22T15:00:17.988Z,18.20
2022-09-22T15:02:44.234Z,18.20
2022-09-22T15:05:10.479Z,18.21
2022-09-22T15:07:36.689Z,18.22
2022-09-22T15:10:03.151Z,18.23
2022-09-22T15:12:29.486Z,18.22
2022-09-22T15:14:55.908Z,18.24
2022-09-22T15:17:22.423Z,18.23
2022-09-22T15:19:48.793Z,18.26
2022-09-22T15:22:15.493Z,18.26
2022-09-22T15:24:42.005Z,18.26
2022-09-22T15:27:08.382Z,18.27
2022-09-22T15:29:34.687Z,18.25
2022-09-22T15:32:01.205Z,18.26
2022-09-22T15:34:28.308Z,18.26
2022-09-22T15:36:54.615Z,18.28
2022-09-22T15:39:20.968Z,18.26
2022-09-22T15:41:47.710Z,18.27
2022-09-22T15:44:16.295Z,18.27
2022-09-22T15:46:42.798Z,18.27
2022-09-22T15:49:09.114Z,18.26
2022-09-22T15:51:35.563Z,18.26
2022-09-22T15:54:01.888Z,18.26
2022-09-22T15:56:28.279Z,18.28
2022-09-22T15:58:54.629Z,18.27
2022-09-22T16:01:21.033Z,18.27
2022-09-22T16:03:47.381Z,18.26
2022-09-22T16:06:13.641Z,18.25
2022-09-22T16:08:40.093Z,18.26
2022-09-22T16:11:06.389Z,18.27
2022-09-22T16:13:32.714Z,18.26
2022-09-22T16:15:59.182Z,18.26
2022-09-22T16:18:25.481Z,18.25
2022-09-22T16:20:51.784Z,18.25
2022-09-22T16:23:18.059Z,18.24
2022-09-22T16:25:44.716Z,18.24
2022-09-22T16:28:11.026Z,18.25
2022-09-22T16:30:37.322Z,18.24
2022-09-22T16:33:03.588Z,18.24
2022-09-22T16:35:29.852Z,18.24
2022-09-22T16:37:56.367Z,18.24
2022-09-22T16:40:22.764Z,18.23
2022-09-22T16:42:49.200Z,18.23
2022-09-22T16:45:15.812Z,18.24
2022-09-22T16:47:42.090Z,18.23
2022-09-22T16:50:08.681Z,18.24
2022-09-22T16:52:35.066Z,18.24
2022-09-22T16:55:01.325Z,18.23
2022-09-22T16:57:27.866Z,18.24
2022-09-22T16:59:54.353Z,18.24
2022-09-22T17:02:20.959Z,18.25
2022-09-22T17:04:47.467Z,18.25
2022-09-22T17:07:13.975Z,18.24
2022-09-22T17:09:40.467Z,18.24
2022-09-22T17:12:06.847Z,18.24
2022-09-22T17:14:33.087Z,18.26
2022-09-22T17:16:59.359Z,18.26
2022-09-22T17:19:25.659Z,18.26
2022-09-22T17:21:51.944Z,18.26
2022-09-22T17:24:18.531Z,18.26
2022-09-22T17:26:45.261Z,18.26
2022-09-22T17:29:11.557Z,18.26
2022-09-22T17:31:38.102Z,18.27
2022-09-22T17:34:04.612Z,18.27
2022-09-22T17:36:30.997Z,18.26
2022-09-22T17:38:57.268Z,18.25
2022-09-22T17:41:23.591Z,18.27
2022-09-22T17:43:50.094Z,18.28
2022-09-22T17:46:16.410Z,18.28
2022-09-22T17:48:42.838Z,18.29
2022-09-22T17:51:09.087Z,18.28
2022-09-22T17:53:35.518Z,18.29
2022-09-22T17:56:01.839Z,18.29
2022-09-22T17:58:28.111Z,18.28
2022-09-22T18:00:54.712Z,18.30
2022-09-22T18:03:21.219Z,18.29
2022-09-22T18:05:47.524Z,18.29
2022-09-22T18:08:13.829Z,18.30
2022-09-22T18:10:40.097Z,18.30
2022-09-22T18:13:06.661Z,18.29
2022-09-22T18:15:33.185Z,18.30
2022-09-22T18:17:59.913Z,18.29
2022-09-22T18:20:26.235Z,18.28
2022-09-22T18:22:52.577Z,18.30
2022-09-22T18:25:19.034Z,18.29
2022-09-22T18:27:45.295Z,18.30
2022-09-22T18:30:15.393Z,18.29
2022-09-22T18:32:42.399Z,18.29
2022-09-22T18:35:08.693Z,18.29
2022-09-22T18:37:35.616Z,18.29
2022-09-22T18:40:02.076Z,18.29
2022-09-22T18:42:28.542Z,18.28
2022-09-22T18:44:54.973Z,18.28
2022-09-22T18:47:21.275Z,18.30
2022-09-22T18:49:47.617Z,18.29
2022-09-22T18:52:14.041Z,18.29
2022-09-22T18:54:40.300Z,18.29
2022-09-22T18:57:06.597Z,18.29
2022-09-22T18:59:32.889Z,18.29
2022-09-22T19:01:59.251Z,18.30
2022-09-22T19:04:25.637Z,18.30
2022-09-22T19:06:51.869Z,18.29
2022-09-22T19:09:18.174Z,18.31
2022-09-22T19:11:44.436Z,18.29
2022-09-22T19:14:10.737Z,18.28
2022-09-22T19:16:37.120Z,18.29
2022-09-22T19:19:03.408Z,18.30
2022-09-22T19:21:29.622Z,18.29
2022-09-22T19:23:55.946Z,18.29
2022-09-22T19:26:22.241Z,18.29
2022-09-22T19:28:48.521Z,18.28
2022-09-22T19:31:14.816Z,18.30
2022-09-22T19:33:41.305Z,18.30
2022-09-22T19:36:07.611Z,18.29
2022-09-22T19:38:33.935Z,18.28
2022-09-22T19:41:00.286Z,18.29
2022-09-22T19:43:26.592Z,18.29
2022-09-22T19:45:52.892Z,18.28
2022-09-22T19:48:19.691Z,18.28
2022-09-22T19:50:45.961Z,18.28
2022-09-22T19:53:12.465Z,18.27
2022-09-22T19:55:38.717Z,18.27
2022-09-22T19:58:04.996Z,18.27
2022-09-22T20:00:31.353Z,18.26
2022-09-22T20:02:57.788Z,18.28
2022-09-22T20:05:24.098Z,18.27
2022-09-22T20:07:50.429Z,18.27
2022-09-22T20:10:16.726Z,18.27
2022-09-22T20:12:42.981Z,18.25
2022-09-22T20:15:09.244Z,18.26
2022-09-22T20:17:35.653Z,18.27
2022-09-22T20:20:02.964Z,18.26
2022-09-22T20:22:29.453Z,18.27
2022-09-22T20:24:55.733Z,18.26
2022-09-22T20:27:22.154Z,18.26
2022-09-22T20:29:48.465Z,18.27
2022-09-22T20:32:14.802Z,18.27
2022-09-22T20:34:41.040Z,18.26
2022-09-22T20:37:07.493Z,18.25
2022-09-22T20:39:34.143Z,18.26
2022-09-22T20:42:00.480Z,18.26
2022-09-22T20:44:26.778Z,18.26
2022-09-22T20:46:53.164Z,18.25
2022-09-22T20:49:19.603Z,18.24
2022-09-22T20:51:46.510Z,18.23
2022-09-22T20:54:12.833Z,18.24
2022-09-22T20:56:42.599Z,18.25
2022-09-22T20:59:09.294Z,18.26
2022-09-22T21:01:35.649Z,18.23
2022-09-22T21:04:02.083Z,18.24
2022-09-22T21:06:28.412Z,18.24
2022-09-22T21:08:54.847Z,18.24
2022-09-22T21:11:21.166Z,18.24
2022-09-22T21:13:47.548Z,18.23
2022-09-22T21:16:13.917Z,18.22
2022-09-22T21:18:40.232Z,18.24
2022-09-22T21:21:06.514Z,18.23
2022-09-22T21:23:32.829Z,18.22
2022-09-22T21:25:59.784Z,18.24
2022-09-22T21:28:26.097Z,18.23
2022-09-22T21:30:52.486Z,18.23
2022-09-22T21:33:19.078Z,18.23
2022-09-22T21:35:45.561Z,18.22
2022-09-22T21:38:11.892Z,18.23
2022-09-22T21:40:38.353Z,18.22
2022-09-22T21:43:04.853Z,18.22
2022-09-22T21:45:31.140Z,18.22
2022-09-22T21:47:57.451Z,18.22
2022-09-22T21:50:23.888Z,18.22
2022-09-22T21:52:50.228Z,18.20
2022-09-22T21:55:16.551Z,18.20
2022-09-22T21:57:42.970Z,18.20
2022-09-22T22:00:09.256Z,18.20
2022-09-22T22:02:35.831Z,18.23
2022-09-22T22:05:02.141Z,18.22
2022-09-22T22:07:29.024Z,18.20
2022-09-22T22:09:55.286Z,18.21
2022-09-22T22:12:21.598Z,18.22
2022-09-22T22:14:47.878Z,18.20
2022-09-22T22:17:14.246Z,18.22
2022-09-22T22:19:40.863Z,18.18
2022-09-22T22:22:09.819Z,18.20
2022-09-22T22:24:36.870Z,18.19
2022-09-22T22:27:03.290Z,18.19
2022-09-22T22:29:29.701Z,18.19
2022-09-22T22:31:56.602Z,18.19
2022-09-22T22:34:22.933Z,18.18
2022-09-22T22:36:49.290Z,18.19
2022-09-22T22:39:15.782Z,18.20
2022-09-22T22:41:42.117Z,18.20
2022-09-22T22:44:08.351Z,18.20
2022-09-22T22:46:34.718Z,18.18
2022-09-22T22:49:01.292Z,18.18
2022-09-22T22:51:27.560Z,18.18
2022-09-22T22:53:53.835Z,18.17
2022-09-22T22:56:20.204Z,18.16
2022-09-22T22:58:47.431Z,18.16
2022-09-22T23:01:13.807Z,18.19
2022-09-22T23:03:40.305Z,18.18
2022-09-22T23:06:06.746Z,18.18
2022-09-22T23:08:33.161Z,18.18
2022-09-22T23:10:59.454Z,18.17
2022-09-22T23:13:25.682Z,18.18
2022-09-22T23:15:52.405Z,18.17
2022-09-22T23:18:20.887Z,18.16
2022-09-22T23:20:47.429Z,18.16
2022-09-22T23:23:13.730Z,18.17
2022-09-22T23:25:40.008Z,18.16
2022-09-22T23:28:06.447Z,18.17
2022-09-22T23:30:32.846Z,18.16
2022-09-22T23:32:59.178Z,18.16
2022-09-22T23:35:25.637Z,18.17
2022-09-22T23:37:51.932Z,18.16
2022-09-22T23:40:18.243Z,18.16
2022-09-22T23:42:44.782Z,18.15
2022-09-22T23:45:11.167Z,18.15
2022-09-22T23:47:40.964Z,18.15
2022-09-22T23:50:07.356Z,18.15
2022-09-22T23:52:33.688Z,18.15
2022-09-22T23:55:00.033Z,18.15
2022-09-22T23:57:26.368Z,18.14
2022-09-22T23:59:52.793Z,18.14
